• Join FlightAware (Why Join?)
  • Login
  • US Flag 
06:32AM EDT


 

Airport Tracker/Info


-or-


 

Live Flight TrackerFlight Track Log ✈ LIA553 ✈ 17-May-2013 ✈ TIST / STT - TQPF / AXA

Flight Track Log - Related Links

Times and Time Zones

All times are in EDT time to prevent confusion due to time zone crossing. See the LIA553 flight status page for this flight to view local times or setup timezone preferences in your user account.

Time Position Orientation Groundspeed Altitude Reporting Facility
EDT Latitude Longitude Course Direction KTS MPH feet Rate Location/Type
01:40PM 18.3167 -64.9333 118° Southeast 150 173 1,100  Level San Juan Center
01:41PM 18.3000 -64.9000 118° Southeast 160 184 2,400 1,140 Climbing San Juan Center
01:42PM 18.2833 -64.8500 109° East 170 196 3,400 960 Climbing San Juan Center
01:43PM 18.2667 -64.7833 105° East 200 230 4,400 960 Climbing San Juan Center
01:44PM 18.3000 -64.7333 55° Northeast 220 253 5,400 1,020 Climbing San Juan Center
01:45PM 18.3167 -64.6667 75° East 220 253 6,500 1,020 Climbing San Juan Center
01:46PM 18.3500 -64.6000 62° Northeast 230 265 7,500 960 Climbing San Juan Center
01:47PM 18.3833 -64.5500 55° Northeast 230 265 8,500 900 Climbing San Juan Center
01:48PM 18.4000 -64.4833 75° East 220 253 9,400 960 Climbing San Juan Center
01:49PM 18.3833 -64.4167 105° East 240 276 10,500 780 Climbing San Juan Center
01:50PM 18.3667 -64.3500 105° East 220 253 11,000 240 Climbing San Juan Center
01:51PM 18.3667 -64.2833 90° East 250 288 11,000  Level San Juan Center
01:52PM 18.3667 -64.2167 90° East 250 288 11,000  Level San Juan Center
01:53PM 18.3667 -64.1333 90° East 240 276 11,000  Level San Juan Center
01:54PM 18.3500 -64.0667 105° East 250 288 11,000  Level San Juan Center
01:55PM 18.3500 -64.0000 90° East 250 288 11,000  Level San Juan Center
01:56PM 18.3500 -63.9167 90° East 260 299 11,000  Level San Juan Center
01:57PM 18.3667 -63.8500 75° East 260 299 11,000  Level San Juan Center
01:58PM 18.3667 -63.7667 90° East 260 299 11,100 60 Climbing San Juan Center
02:00PM 18.3833 -63.6760 90° East  Level FlightAware Approximate
02:07PM 18.2535 -63.2340 102° East  Level FlightAware Approximate
02:08PM 18.2383 -63.1707 113° Southeast  Level FlightAware Approximate
02:09PM 18.2133 -63.1100 118° Southeast  Level FlightAware Approximate
02:10PM 18.2000 -63.0500 90° East  Level FlightAware Approximate
02:11PM 18.2048 -63.0551 90° East  Level Estimated
02:12PM 18.2000 -63.0500 90° East  Level FlightAware Approximate
02:13PM 18.2048 -63.0551 90° East  Level Estimated
02:14PM 18.2000 -63.0500 90° East  Level FlightAware Approximate
02:15PM 18.2048 -63.0551 90° East  Level Estimated
02:16PM 18.2000 -63.0500 90° East  Level FlightAware Approximate
02:17PM 18.2048 -63.0551 90° East  Level Estimated
02:18PM 18.2000 -63.0500 90° East  Level FlightAware Approximate
02:19PM 18.2048 -63.0551 90° East  Level Estimated
02:20PM 18.2000 -63.0500 90° East  Level FlightAware Approximate
02:21PM 18.2048 -63.0551 90° East  Level Estimated
02:22PM 18.2000 -63.0500 90° East  Level FlightAware Approximate
02:23PM 18.2048 -63.0551 90° East  Level Estimated
02:24PM 18.2000 -63.0500 90° East  Level FlightAware Approximate
02:25PM 18.2048 -63.0551 90° East  Level Estimated